sensor_id;sensor_type;location;lat;lon;timestamp;temperature;humidity
14517;DHT22;7344;50.864;4.362;2023-06-22T00:00:52;20.80;28.70
14517;DHT22;7344;50.864;4.362;2023-06-22T00:03:19;20.80;29.30
14517;DHT22;7344;50.864;4.362;2023-06-22T00:05:46;20.80;28.20
14517;DHT22;7344;50.864;4.362;2023-06-22T00:08:12;20.80;27.90
14517;DHT22;7344;50.864;4.362;2023-06-22T00:10:38;20.80;26.10
14517;DHT22;7344;50.864;4.362;2023-06-22T00:13:05;20.90;27.00
14517;DHT22;7344;50.864;4.362;2023-06-22T00:15:31;20.90;27.20
14517;DHT22;7344;50.864;4.362;2023-06-22T00:17:56;20.90;29.80
14517;DHT22;7344;50.864;4.362;2023-06-22T00:20:23;20.90;27.80
14517;DHT22;7344;50.864;4.362;2023-06-22T00:22:56;20.90;30.20
14517;DHT22;7344;50.864;4.362;2023-06-22T00:25:23;20.90;31.20
14517;DHT22;7344;50.864;4.362;2023-06-22T00:27:49;20.90;32.10
14517;DHT22;7344;50.864;4.362;2023-06-22T00:30:18;20.80;31.30
14517;DHT22;7344;50.864;4.362;2023-06-22T00:32:45;20.80;31.30
14517;DHT22;7344;50.864;4.362;2023-06-22T00:35:12;20.80;33.20
14517;DHT22;7344;50.864;4.362;2023-06-22T00:37:39;20.90;33.50
14517;DHT22;7344;50.864;4.362;2023-06-22T00:40:08;20.90;33.30
14517;DHT22;7344;50.864;4.362;2023-06-22T00:42:34;21.00;31.60
14517;DHT22;7344;50.864;4.362;2023-06-22T00:45:00;20.90;29.50
14517;DHT22;7344;50.864;4.362;2023-06-22T00:47:25;20.90;31.50
14517;DHT22;7344;50.864;4.362;2023-06-22T00:49:52;20.90;30.10
14517;DHT22;7344;50.864;4.362;2023-06-22T00:52:19;20.80;32.80
14517;DHT22;7344;50.864;4.362;2023-06-22T00:54:50;20.90;31.40
14517;DHT22;7344;50.864;4.362;2023-06-22T00:57:17;21.00;28.50
14517;DHT22;7344;50.864;4.362;2023-06-22T00:59:44;20.90;26.50
14517;DHT22;7344;50.864;4.362;2023-06-22T01:02:10;21.00;26.00
14517;DHT22;7344;50.864;4.362;2023-06-22T01:04:37;21.00;27.30
14517;DHT22;7344;50.864;4.362;2023-06-22T01:12:40;20.90;15.60
14517;DHT22;7344;50.864;4.362;2023-06-22T01:15:14;20.80;17.40
14517;DHT22;7344;50.864;4.362;2023-06-22T01:17:41;20.80;19.20
14517;DHT22;7344;50.864;4.362;2023-06-22T01:20:09;20.70;17.20
14517;DHT22;7344;50.864;4.362;2023-06-22T01:23:09;20.70;18.80
14517;DHT22;7344;50.864;4.362;2023-06-22T01:25:47;20.70;20.30
14517;DHT22;7344;50.864;4.362;2023-06-22T01:30:59;20.60;19.60
14517;DHT22;7344;50.864;4.362;2023-06-22T01:33:36;20.50;13.40
14517;DHT22;7344;50.864;4.362;2023-06-22T01:36:03;20.50;19.00
14517;DHT22;7344;50.864;4.362;2023-06-22T01:38:30;20.40;11.30
14517;DHT22;7344;50.864;4.362;2023-06-22T01:40:57;20.40;16.10
14517;DHT22;7344;50.864;4.362;2023-06-22T01:43:25;20.40;15.20
14517;DHT22;7344;50.864;4.362;2023-06-22T01:45:52;20.50;11.30
14517;DHT22;7344;50.864;4.362;2023-06-22T01:48:19;20.50;7.00
14517;DHT22;7344;50.864;4.362;2023-06-22T01:50:45;20.40;6.80
14517;DHT22;7344;50.864;4.362;2023-06-22T01:53:11;20.40;8.20
14517;DHT22;7344;50.864;4.362;2023-06-22T01:55:37;20.40;15.10
14517;DHT22;7344;50.864;4.362;2023-06-22T01:58:02;20.40;18.30
14517;DHT22;7344;50.864;4.362;2023-06-22T02:00:32;20.30;22.60
14517;DHT22;7344;50.864;4.362;2023-06-22T02:03:03;20.30;26.30
14517;DHT22;7344;50.864;4.362;2023-06-22T02:05:38;20.40;26.60
14517;DHT22;7344;50.864;4.362;2023-06-22T02:08:13;20.30;28.80
14517;DHT22;7344;50.864;4.362;2023-06-22T02:10:44;20.30;26.80
14517;DHT22;7344;50.864;4.362;2023-06-22T02:13:11;20.20;26.60
14517;DHT22;7344;50.864;4.362;2023-06-22T02:15:37;20.10;29.10
14517;DHT22;7344;50.864;4.362;2023-06-22T02:18:03;20.00;32.30
14517;DHT22;7344;50.864;4.362;2023-06-22T02:20:30;19.90;30.90
14517;DHT22;7344;50.864;4.362;2023-06-22T02:22:56;19.90;37.70
14517;DHT22;7344;50.864;4.362;2023-06-22T02:25:22;19.90;37.90
14517;DHT22;7344;50.864;4.362;2023-06-22T02:27:47;19.80;36.10
14517;DHT22;7344;50.864;4.362;2023-06-22T02:30:13;19.90;38.90
14517;DHT22;7344;50.864;4.362;2023-06-22T02:32:40;19.90;39.60
14517;DHT22;7344;50.864;4.362;2023-06-22T02:35:11;19.90;35.90
14517;DHT22;7344;50.864;4.362;2023-06-22T02:37:38;20.00;34.10
14517;DHT22;7344;50.864;4.362;2023-06-22T02:40:07;19.90;36.90
14517;DHT22;7344;50.864;4.362;2023-06-22T02:42:36;19.90;40.00
14517;DHT22;7344;50.864;4.362;2023-06-22T02:45:02;19.80;41.50
14517;DHT22;7344;50.864;4.362;2023-06-22T02:47:28;19.70;44.00
14517;DHT22;7344;50.864;4.362;2023-06-22T02:49:53;19.70;45.10
14517;DHT22;7344;50.864;4.362;2023-06-22T02:52:19;19.70;45.10
14517;DHT22;7344;50.864;4.362;2023-06-22T02:54:44;19.70;44.40
14517;DHT22;7344;50.864;4.362;2023-06-22T02:57:11;19.60;48.00
14517;DHT22;7344;50.864;4.362;2023-06-22T02:59:40;19.60;48.40
14517;DHT22;7344;50.864;4.362;2023-06-22T03:02:07;19.60;48.10
14517;DHT22;7344;50.864;4.362;2023-06-22T03:04:33;19.50;44.10
14517;DHT22;7344;50.864;4.362;2023-06-22T03:06:59;19.50;45.00
14517;DHT22;7344;50.864;4.362;2023-06-22T03:09:27;19.50;47.00
14517;DHT22;7344;50.864;4.362;2023-06-22T03:11:56;19.40;48.00
14517;DHT22;7344;50.864;4.362;2023-06-22T03:14:22;19.40;53.70
14517;DHT22;7344;50.864;4.362;2023-06-22T03:16:48;19.40;54.00
14517;DHT22;7344;50.864;4.362;2023-06-22T03:19:13;19.40;55.40
14517;DHT22;7344;50.864;4.362;2023-06-22T03:21:40;19.40;54.80
14517;DHT22;7344;50.864;4.362;2023-06-22T03:24:07;19.30;57.80
14517;DHT22;7344;50.864;4.362;2023-06-22T03:26:34;19.30;58.40
14517;DHT22;7344;50.864;4.362;2023-06-22T03:29:00;19.20;56.30
14517;DHT22;7344;50.864;4.362;2023-06-22T03:31:26;19.20;63.30
14517;DHT22;7344;50.864;4.362;2023-06-22T03:33:51;19.20;66.10
14517;DHT22;7344;50.864;4.362;2023-06-22T03:36:18;19.30;69.00
14517;DHT22;7344;50.864;4.362;2023-06-22T03:38:45;19.30;68.40
14517;DHT22;7344;50.864;4.362;2023-06-22T03:41:11;19.40;66.80
14517;DHT22;7344;50.864;4.362;2023-06-22T03:43:36;19.50;67.50
14517;DHT22;7344;50.864;4.362;2023-06-22T03:46:02;19.60;60.60
14517;DHT22;7344;50.864;4.362;2023-06-22T03:48:28;19.60;55.40
14517;DHT22;7344;50.864;4.362;2023-06-22T03:50:53;19.60;51.50
14517;DHT22;7344;50.864;4.362;2023-06-22T03:53:19;19.50;53.20
14517;DHT22;7344;50.864;4.362;2023-06-22T03:55:52;19.50;58.00
14517;DHT22;7344;50.864;4.362;2023-06-22T03:58:19;19.50;57.80
14517;DHT22;7344;50.864;4.362;2023-06-22T04:00:49;19.60;53.80
14517;DHT22;7344;50.864;4.362;2023-06-22T04:03:15;19.50;50.50
14517;DHT22;7344;50.864;4.362;2023-06-22T04:05:42;19.60;53.00
14517;DHT22;7344;50.864;4.362;2023-06-22T04:08:08;19.60;50.30
14517;DHT22;7344;50.864;4.362;2023-06-22T04:10:33;19.70;49.20
14517;DHT22;7344;50.864;4.362;2023-06-22T04:13:00;19.70;46.60
14517;DHT22;7344;50.864;4.362;2023-06-22T04:15:25;19.70;49.00
14517;DHT22;7344;50.864;4.362;2023-06-22T04:17:51;19.70;46.80
14517;DHT22;7344;50.864;4.362;2023-06-22T04:20:17;19.80;48.50
14517;DHT22;7344;50.864;4.362;2023-06-22T04:22:42;20.00;42.80
14517;DHT22;7344;50.864;4.362;2023-06-22T04:25:08;19.90;38.40
14517;DHT22;7344;50.864;4.362;2023-06-22T04:27:34;20.00;39.90
14517;DHT22;7344;50.864;4.362;2023-06-22T04:30:07;19.90;41.20
14517;DHT22;7344;50.864;4.362;2023-06-22T04:32:36;19.90;40.50
14517;DHT22;7344;50.864;4.362;2023-06-22T04:35:03;19.90;41.10
14517;DHT22;7344;50.864;4.362;2023-06-22T04:37:30;20.00;42.90
14517;DHT22;7344;50.864;4.362;2023-06-22T04:39:56;20.00;39.90
14517;DHT22;7344;50.864;4.362;2023-06-22T04:42:21;20.00;40.50
14517;DHT22;7344;50.864;4.362;2023-06-22T04:44:47;19.90;38.50
14517;DHT22;7344;50.864;4.362;2023-06-22T04:47:12;19.90;42.70
14517;DHT22;7344;50.864;4.362;2023-06-22T04:49:38;19.90;41.70
14517;DHT22;7344;50.864;4.362;2023-06-22T04:52:07;19.90;43.70
14517;DHT22;7344;50.864;4.362;2023-06-22T04:54:34;20.00;45.20
14517;DHT22;7344;50.864;4.362;2023-06-22T04:57:04;20.00;42.90
14517;DHT22;7344;50.864;4.362;2023-06-22T04:59:31;20.10;42.90
14517;DHT22;7344;50.864;4.362;2023-06-22T05:01:58;20.10;41.40
14517;DHT22;7344;50.864;4.362;2023-06-22T05:04:24;20.10;40.40
14517;DHT22;7344;50.864;4.362;2023-06-22T05:06:53;20.20;40.20
14517;DHT22;7344;50.864;4.362;2023-06-22T05:09:20;20.30;41.20
14517;DHT22;7344;50.864;4.362;2023-06-22T05:11:46;20.20;37.10
14517;DHT22;7344;50.864;4.362;2023-06-22T05:14:12;20.30;40.60
14517;DHT22;7344;50.864;4.362;2023-06-22T05:16:38;20.20;37.40
14517;DHT22;7344;50.864;4.362;2023-06-22T05:19:05;20.20;42.50
14517;DHT22;7344;50.864;4.362;2023-06-22T05:21:31;20.10;43.90
14517;DHT22;7344;50.864;4.362;2023-06-22T05:23:57;20.10;46.70
14517;DHT22;7344;50.864;4.362;2023-06-22T05:26:31;20.20;50.70
14517;DHT22;7344;50.864;4.362;2023-06-22T05:28:59;20.20;48.70
14517;DHT22;7344;50.864;4.362;2023-06-22T05:31:26;20.20;52.30
14517;DHT22;7344;50.864;4.362;2023-06-22T05:33:53;20.10;54.90
14517;DHT22;7344;50.864;4.362;2023-06-22T05:36:19;20.00;65.70
14517;DHT22;7344;50.864;4.362;2023-06-22T05:38:45;20.00;75.60
14517;DHT22;7344;50.864;4.362;2023-06-22T05:41:11;20.00;71.00
14517;DHT22;7344;50.864;4.362;2023-06-22T05:43:37;20.10;79.60
14517;DHT22;7344;50.864;4.362;2023-06-22T05:46:04;20.20;70.90
14517;DHT22;7344;50.864;4.362;2023-06-22T05:48:29;20.20;83.10
14517;DHT22;7344;50.864;4.362;2023-06-22T05:50:55;20.10;86.70
14517;DHT22;7344;50.864;4.362;2023-06-22T05:53:21;20.10;95.00
14517;DHT22;7344;50.864;4.362;2023-06-22T05:55:46;20.00;96.40
14517;DHT22;7344;50.864;4.362;2023-06-22T05:58:12;20.00;99.40
14517;DHT22;7344;50.864;4.362;2023-06-22T06:00:39;20.10;99.90
14517;DHT22;7344;50.864;4.362;2023-06-22T06:03:05;20.00;99.90
14517;DHT22;7344;50.864;4.362;2023-06-22T06:05:34;19.90;99.90
14517;DHT22;7344;50.864;4.362;2023-06-22T06:08:01;19.90;99.90
14517;DHT22;7344;50.864;4.362;2023-06-22T06:10:27;19.70;99.90
14517;DHT22;7344;50.864;4.362;2023-06-22T06:12:55;19.70;99.90
14517;DHT22;7344;50.864;4.362;2023-06-22T06:15:20;19.80;99.90
14517;DHT22;7344;50.864;4.362;2023-06-22T06:17:51;19.70;99.90
14517;DHT22;7344;50.864;4.362;2023-06-22T06:20:24;19.70;99.90
14517;DHT22;7344;50.864;4.362;2023-06-22T06:22:50;19.70;99.90
14517;DHT22;7344;50.864;4.362;2023-06-22T06:25:16;19.70;99.90
14517;DHT22;7344;50.864;4.362;2023-06-22T06:27:51;19.80;99.90
14517;DHT22;7344;50.864;4.362;2023-06-22T06:30:19;19.80;99.90
14517;DHT22;7344;50.864;4.362;2023-06-22T06:32:45;19.90;99.90
14517;DHT22;7344;50.864;4.362;2023-06-22T06:35:13;19.90;99.90
14517;DHT22;7344;50.864;4.362;2023-06-22T06:37:40;20.20;99.90
14517;DHT22;7344;50.864;4.362;2023-06-22T06:40:10;20.40;99.90
14517;DHT22;7344;50.864;4.362;2023-06-22T06:42:38;20.30;99.90
14517;DHT22;7344;50.864;4.362;2023-06-22T06:45:06;20.30;98.90
14517;DHT22;7344;50.864;4.362;2023-06-22T06:47:32;20.30;99.90
14517;DHT22;7344;50.864;4.362;2023-06-22T06:49:57;20.40;99.90
14517;DHT22;7344;50.864;4.362;2023-06-22T06:52:23;20.50;99.90
14517;DHT22;7344;50.864;4.362;2023-06-22T06:54:49;20.80;99.90
14517;DHT22;7344;50.864;4.362;2023-06-22T06:57:17;20.80;90.50
14517;DHT22;7344;50.864;4.362;2023-06-22T06:59:43;21.00;95.00
14517;DHT22;7344;50.864;4.362;2023-06-22T07:02:08;21.30;93.90
14517;DHT22;7344;50.864;4.362;2023-06-22T07:04:34;21.20;67.80
14517;DHT22;7344;50.864;4.362;2023-06-22T07:07:02;21.10;53.40
14517;DHT22;7344;50.864;4.362;2023-06-22T07:09:27;21.00;61.70
14517;DHT22;7344;50.864;4.362;2023-06-22T07:11:53;21.00;76.70
14517;DHT22;7344;50.864;4.362;2023-06-22T07:14:18;21.00;73.10
14517;DHT22;7344;50.864;4.362;2023-06-22T07:16:44;21.10;83.20
14517;DHT22;7344;50.864;4.362;2023-06-22T07:19:12;21.10;63.00
14517;DHT22;7344;50.864;4.362;2023-06-22T07:21:38;21.10;66.40
14517;DHT22;7344;50.864;4.362;2023-06-22T07:24:05;21.10;73.50
14517;DHT22;7344;50.864;4.362;2023-06-22T07:26:34;21.20;62.00
14517;DHT22;7344;50.864;4.362;2023-06-22T07:28:59;21.30;58.40
14517;DHT22;7344;50.864;4.362;2023-06-22T07:31:25;21.60;53.70
14517;DHT22;7344;50.864;4.362;2023-06-22T07:33:51;21.90;39.50
14517;DHT22;7344;50.864;4.362;2023-06-22T07:36:18;22.10;21.40
14517;DHT22;7344;50.864;4.362;2023-06-22T07:38:44;21.90;22.10
14517;DHT22;7344;50.864;4.362;2023-06-22T07:41:09;21.60;26.30
14517;DHT22;7344;50.864;4.362;2023-06-22T07:43:35;21.50;32.60
14517;DHT22;7344;50.864;4.362;2023-06-22T07:46:03;21.50;36.10
14517;DHT22;7344;50.864;4.362;2023-06-22T07:48:29;21.40;35.10
14517;DHT22;7344;50.864;4.362;2023-06-22T07:50:55;21.40;45.20
14517;DHT22;7344;50.864;4.362;2023-06-22T07:53:21;21.50;37.10
14517;DHT22;7344;50.864;4.362;2023-06-22T07:55:47;21.50;34.00
14517;DHT22;7344;50.864;4.362;2023-06-22T07:58:13;21.50;30.90
14517;DHT22;7344;50.864;4.362;2023-06-22T08:00:39;21.40;34.40
14517;DHT22;7344;50.864;4.362;2023-06-22T08:03:04;21.30;34.40
14517;DHT22;7344;50.864;4.362;2023-06-22T08:05:31;21.20;43.10
14517;DHT22;7344;50.864;4.362;2023-06-22T08:07:57;21.40;36.90
14517;DHT22;7344;50.864;4.362;2023-06-22T08:10:22;21.10;44.00
14517;DHT22;7344;50.864;4.362;2023-06-22T08:12:48;21.10;45.30
14517;DHT22;7344;50.864;4.362;2023-06-22T08:15:14;21.20;50.50
14517;DHT22;7344;50.864;4.362;2023-06-22T08:17:40;21.30;45.30
14517;DHT22;7344;50.864;4.362;2023-06-22T08:20:07;21.30;40.10
14517;DHT22;7344;50.864;4.362;2023-06-22T08:22:37;21.30;44.40
14517;DHT22;7344;50.864;4.362;2023-06-22T08:25:03;21.20;48.60
14517;DHT22;7344;50.864;4.362;2023-06-22T08:27:30;21.20;51.80
14517;DHT22;7344;50.864;4.362;2023-06-22T08:29:57;21.20;53.20
14517;DHT22;7344;50.864;4.362;2023-06-22T08:32:24;21.00;55.40
14517;DHT22;7344;50.864;4.362;2023-06-22T08:34:55;21.00;57.50
14517;DHT22;7344;50.864;4.362;2023-06-22T08:37:21;21.00;62.20
14517;DHT22;7344;50.864;4.362;2023-06-22T08:39:49;21.00;63.80
14517;DHT22;7344;50.864;4.362;2023-06-22T08:42:15;21.00;71.40
14517;DHT22;7344;50.864;4.362;2023-06-22T08:44:40;21.00;73.30
14517;DHT22;7344;50.864;4.362;2023-06-22T08:47:06;21.10;75.70
14517;DHT22;7344;50.864;4.362;2023-06-22T08:49:32;21.20;73.10
14517;DHT22;7344;50.864;4.362;2023-06-22T08:51:57;21.40;66.30
14517;DHT22;7344;50.864;4.362;2023-06-22T08:54:23;21.20;56.30
14517;DHT22;7344;50.864;4.362;2023-06-22T08:56:48;21.20;68.80
14517;DHT22;7344;50.864;4.362;2023-06-22T08:59:14;21.20;70.30
14517;DHT22;7344;50.864;4.362;2023-06-22T09:01:40;21.30;69.80
14517;DHT22;7344;50.864;4.362;2023-06-22T09:04:05;21.30;58.50
14517;DHT22;7344;50.864;4.362;2023-06-22T09:06:32;21.30;72.60
14517;DHT22;7344;50.864;4.362;2023-06-22T09:08:58;21.30;62.50
14517;DHT22;7344;50.864;4.362;2023-06-22T09:11:27;21.20;70.20
14517;DHT22;7344;50.864;4.362;2023-06-22T09:13:52;21.30;77.50
14517;DHT22;7344;50.864;4.362;2023-06-22T09:16:19;21.40;90.80
14517;DHT22;7344;50.864;4.362;2023-06-22T09:18:48;21.60;79.70
14517;DHT22;7344;50.864;4.362;2023-06-22T09:21:13;21.60;72.60
14517;DHT22;7344;50.864;4.362;2023-06-22T09:23:39;21.70;58.30
14517;DHT22;7344;50.864;4.362;2023-06-22T09:26:05;21.70;48.50
14517;DHT22;7344;50.864;4.362;2023-06-22T09:28:31;21.60;58.20
14517;DHT22;7344;50.864;4.362;2023-06-22T09:30:56;21.40;64.70
14517;DHT22;7344;50.864;4.362;2023-06-22T09:33:24;21.40;85.70
14517;DHT22;7344;50.864;4.362;2023-06-22T09:35:50;21.50;67.00
14517;DHT22;7344;50.864;4.362;2023-06-22T09:38:16;21.50;71.90
14517;DHT22;7344;50.864;4.362;2023-06-22T09:40:42;21.10;65.40
14517;DHT22;7344;50.864;4.362;2023-06-22T09:43:08;21.00;81.00
14517;DHT22;7344;50.864;4.362;2023-06-22T09:45:33;20.70;91.30
14517;DHT22;7344;50.864;4.362;2023-06-22T09:47:59;20.50;99.90
14517;DHT22;7344;50.864;4.362;2023-06-22T09:50:25;20.30;99.90
14517;DHT22;7344;50.864;4.362;2023-06-22T09:52:50;20.10;99.90
14517;DHT22;7344;50.864;4.362;2023-06-22T09:55:20;19.80;99.90
14517;DHT22;7344;50.864;4.362;2023-06-22T09:57:46;19.50;99.90
14517;DHT22;7344;50.864;4.362;2023-06-22T10:00:12;19.30;99.90
14517;DHT22;7344;50.864;4.362;2023-06-22T10:02:39;19.10;99.90
14517;DHT22;7344;50.864;4.362;2023-06-22T10:05:05;18.90;99.90
14517;DHT22;7344;50.864;4.362;2023-06-22T10:07:31;18.70;99.90
14517;DHT22;7344;50.864;4.362;2023-06-22T10:09:56;18.50;99.90
14517;DHT22;7344;50.864;4.362;2023-06-22T10:12:22;18.40;99.90
14517;DHT22;7344;50.864;4.362;2023-06-22T10:14:50;18.30;99.90
14517;DHT22;7344;50.864;4.362;2023-06-22T10:17:16;18.40;99.90
14517;DHT22;7344;50.864;4.362;2023-06-22T10:19:41;18.20;99.90
14517;DHT22;7344;50.864;4.362;2023-06-22T10:22:07;18.20;99.90
14517;DHT22;7344;50.864;4.362;2023-06-22T10:24:33;18.20;99.90
14517;DHT22;7344;50.864;4.362;2023-06-22T10:26:58;18.30;99.90
14517;DHT22;7344;50.864;4.362;2023-06-22T10:29:24;18.20;99.90
14517;DHT22;7344;50.864;4.362;2023-06-22T10:31:50;18.20;99.90
14517;DHT22;7344;50.864;4.362;2023-06-22T10:34:26;18.20;99.90
14517;DHT22;7344;50.864;4.362;2023-06-22T10:36:51;18.20;99.90
14517;DHT22;7344;50.864;4.362;2023-06-22T10:39:17;18.30;99.90
14517;DHT22;7344;50.864;4.362;2023-06-22T10:41:44;18.30;99.90
14517;DHT22;7344;50.864;4.362;2023-06-22T10:44:10;18.40;99.90
14517;DHT22;7344;50.864;4.362;2023-06-22T10:46:36;18.50;99.90
14517;DHT22;7344;50.864;4.362;2023-06-22T10:49:01;18.50;99.90
14517;DHT22;7344;50.864;4.362;2023-06-22T10:51:27;18.60;99.90
14517;DHT22;7344;50.864;4.362;2023-06-22T10:53:54;18.60;99.90
14517;DHT22;7344;50.864;4.362;2023-06-22T10:56:19;18.70;99.90
14517;DHT22;7344;50.864;4.362;2023-06-22T10:58:45;18.80;99.90
14517;DHT22;7344;50.864;4.362;2023-06-22T11:01:11;18.90;99.90
14517;DHT22;7344;50.864;4.362;2023-06-22T11:03:37;18.90;99.90
14517;DHT22;7344;50.864;4.362;2023-06-22T11:06:02;19.10;99.90
14517;DHT22;7344;50.864;4.362;2023-06-22T11:08:28;19.00;99.90
14517;DHT22;7344;50.864;4.362;2023-06-22T11:10:53;19.10;99.90
14517;DHT22;7344;50.864;4.362;2023-06-22T11:13:19;19.00;99.90
14517;DHT22;7344;50.864;4.362;2023-06-22T11:15:45;18.90;99.90
14517;DHT22;7344;50.864;4.362;2023-06-22T11:18:10;19.00;99.90
14517;DHT22;7344;50.864;4.362;2023-06-22T11:20:36;19.00;99.90
14517;DHT22;7344;50.864;4.362;2023-06-22T11:23:05;19.10;99.90
14517;DHT22;7344;50.864;4.362;2023-06-22T11:25:32;19.10;99.90
14517;DHT22;7344;50.864;4.362;2023-06-22T11:27:57;19.10;99.90
14517;DHT22;7344;50.864;4.362;2023-06-22T11:30:23;19.10;99.90
14517;DHT22;7344;50.864;4.362;2023-06-22T11:32:48;19.00;99.90
14517;DHT22;7344;50.864;4.362;2023-06-22T11:35:14;18.80;99.90
14517;DHT22;7344;50.864;4.362;2023-06-22T11:37:40;18.70;99.90
14517;DHT22;7344;50.864;4.362;2023-06-22T11:40:06;18.70;99.90
14517;DHT22;7344;50.864;4.362;2023-06-22T11:42:34;18.80;99.90
14517;DHT22;7344;50.864;4.362;2023-06-22T11:45:00;18.80;99.90
14517;DHT22;7344;50.864;4.362;2023-06-22T11:47:26;18.90;99.90
14517;DHT22;7344;50.864;4.362;2023-06-22T11:49:51;18.80;99.90
14517;DHT22;7344;50.864;4.362;2023-06-22T11:52:17;18.90;99.90
14517;DHT22;7344;50.864;4.362;2023-06-22T11:54:45;18.80;99.90
14517;DHT22;7344;50.864;4.362;2023-06-22T11:57:11;18.90;99.90
14517;DHT22;7344;50.864;4.362;2023-06-22T11:59:36;18.80;99.90
14517;DHT22;7344;50.864;4.362;2023-06-22T12:02:02;18.80;99.90
14517;DHT22;7344;50.864;4.362;2023-06-22T12:04:29;18.60;99.90
14517;DHT22;7344;50.864;4.362;2023-06-22T12:06:54;18.80;99.90
14517;DHT22;7344;50.864;4.362;2023-06-22T12:09:20;18.80;99.90
14517;DHT22;7344;50.864;4.362;2023-06-22T12:11:45;19.00;99.90
14517;DHT22;7344;50.864;4.362;2023-06-22T12:14:11;18.90;99.90
14517;DHT22;7344;50.864;4.362;2023-06-22T12:16:36;18.90;99.90
14517;DHT22;7344;50.864;4.362;2023-06-22T12:19:03;19.00;99.90
14517;DHT22;7344;50.864;4.362;2023-06-22T12:21:28;18.90;99.90
14517;DHT22;7344;50.864;4.362;2023-06-22T12:23:54;18.90;99.90
14517;DHT22;7344;50.864;4.362;2023-06-22T12:26:20;18.80;99.90
14517;DHT22;7344;50.864;4.362;2023-06-22T12:28:45;18.90;99.90
14517;DHT22;7344;50.864;4.362;2023-06-22T12:31:11;18.80;99.90
14517;DHT22;7344;50.864;4.362;2023-06-22T12:33:36;18.90;99.90
14517;DHT22;7344;50.864;4.362;2023-06-22T12:36:02;18.90;99.90
14517;DHT22;7344;50.864;4.362;2023-06-22T12:38:28;19.00;99.90
14517;DHT22;7344;50.864;4.362;2023-06-22T12:40:54;19.00;99.90
14517;DHT22;7344;50.864;4.362;2023-06-22T12:43:20;19.00;99.90
14517;DHT22;7344;50.864;4.362;2023-06-22T12:45:45;19.00;99.90
14517;DHT22;7344;50.864;4.362;2023-06-22T12:48:11;19.00;99.90
14517;DHT22;7344;50.864;4.362;2023-06-22T12:50:38;19.00;99.90
14517;DHT22;7344;50.864;4.362;2023-06-22T12:53:03;19.10;99.90
14517;DHT22;7344;50.864;4.362;2023-06-22T12:55:30;19.20;99.90
14517;DHT22;7344;50.864;4.362;2023-06-22T12:57:55;19.20;99.90
14517;DHT22;7344;50.864;4.362;2023-06-22T13:00:21;19.20;99.90
14517;DHT22;7344;50.864;4.362;2023-06-22T13:02:47;19.20;99.90
14517;DHT22;7344;50.864;4.362;2023-06-22T13:05:12;19.20;99.90
14517;DHT22;7344;50.864;4.362;2023-06-22T13:07:38;19.10;99.90
14517;DHT22;7344;50.864;4.362;2023-06-22T13:10:04;19.20;99.90
14517;DHT22;7344;50.864;4.362;2023-06-22T13:12:30;19.10;99.90
14517;DHT22;7344;50.864;4.362;2023-06-22T13:14:55;19.10;99.90
14517;DHT22;7344;50.864;4.362;2023-06-22T13:17:21;19.10;99.90
14517;DHT22;7344;50.864;4.362;2023-06-22T13:19:47;19.20;99.90
14517;DHT22;7344;50.864;4.362;2023-06-22T13:22:32;19.10;99.90
14517;DHT22;7344;50.864;4.362;2023-06-22T13:24:59;19.20;99.90
14517;DHT22;7344;50.864;4.362;2023-06-22T13:27:24;19.00;99.90
14517;DHT22;7344;50.864;4.362;2023-06-22T13:29:50;19.00;99.90
14517;DHT22;7344;50.864;4.362;2023-06-22T13:32:16;18.90;99.90
14517;DHT22;7344;50.864;4.362;2023-06-22T13:34:43;18.90;99.90
14517;DHT22;7344;50.864;4.362;2023-06-22T13:37:08;18.90;99.90
14517;DHT22;7344;50.864;4.362;2023-06-22T13:39:34;18.80;99.90
14517;DHT22;7344;50.864;4.362;2023-06-22T13:41:59;18.60;99.90
14517;DHT22;7344;50.864;4.362;2023-06-22T13:44:25;18.60;99.90
14517;DHT22;7344;50.864;4.362;2023-06-22T13:46:54;18.60;99.90
14517;DHT22;7344;50.864;4.362;2023-06-22T13:49:20;18.70;99.90
14517;DHT22;7344;50.864;4.362;2023-06-22T13:51:47;18.70;99.90
14517;DHT22;7344;50.864;4.362;2023-06-22T13:54:16;18.60;99.90
14517;DHT22;7344;50.864;4.362;2023-06-22T13:56:42;18.60;99.90
14517;DHT22;7344;50.864;4.362;2023-06-22T13:59:08;18.60;99.90
14517;DHT22;7344;50.864;4.362;2023-06-22T14:01:36;18.60;99.90
14517;DHT22;7344;50.864;4.362;2023-06-22T14:04:02;18.60;99.90
14517;DHT22;7344;50.864;4.362;2023-06-22T14:06:27;18.60;99.90
14517;DHT22;7344;50.864;4.362;2023-06-22T14:08:53;18.60;99.90
14517;DHT22;7344;50.864;4.362;2023-06-22T14:11:19;18.60;99.90
14517;DHT22;7344;50.864;4.362;2023-06-22T14:13:44;18.60;99.90
14517;DHT22;7344;50.864;4.362;2023-06-22T14:16:10;18.60;99.90
14517;DHT22;7344;50.864;4.362;2023-06-22T14:18:36;18.60;99.90
14517;DHT22;7344;50.864;4.362;2023-06-22T14:21:01;18.60;99.90
14517;DHT22;7344;50.864;4.362;2023-06-22T14:23:27;18.60;99.90
14517;DHT22;7344;50.864;4.362;2023-06-22T14:25:53;18.60;99.90
14517;DHT22;7344;50.864;4.362;2023-06-22T14:28:18;18.60;99.90
14517;DHT22;7344;50.864;4.362;2023-06-22T14:30:44;18.70;99.90
14517;DHT22;7344;50.864;4.362;2023-06-22T14:33:09;18.60;99.90
14517;DHT22;7344;50.864;4.362;2023-06-22T14:35:35;18.60;99.90
14517;DHT22;7344;50.864;4.362;2023-06-22T14:38:01;18.60;99.90
14517;DHT22;7344;50.864;4.362;2023-06-22T14:40:26;18.50;99.90
14517;DHT22;7344;50.864;4.362;2023-06-22T14:42:52;18.50;99.90
14517;DHT22;7344;50.864;4.362;2023-06-22T14:45:17;18.50;99.90
14517;DHT22;7344;50.864;4.362;2023-06-22T14:47:43;18.60;99.90
14517;DHT22;7344;50.864;4.362;2023-06-22T14:50:09;18.60;99.90
14517;DHT22;7344;50.864;4.362;2023-06-22T14:52:34;18.60;99.90
14517;DHT22;7344;50.864;4.362;2023-06-22T14:55:00;18.70;99.90
14517;DHT22;7344;50.864;4.362;2023-06-22T14:57:26;18.70;99.90
14517;DHT22;7344;50.864;4.362;2023-06-22T14:59:51;18.80;99.90
14517;DHT22;7344;50.864;4.362;2023-06-22T15:02:17;18.80;99.90
14517;DHT22;7344;50.864;4.362;2023-06-22T15:04:43;18.90;99.90
14517;DHT22;7344;50.864;4.362;2023-06-22T15:07:08;18.80;99.90
14517;DHT22;7344;50.864;4.362;2023-06-22T15:09:34;18.90;99.90
14517;DHT22;7344;50.864;4.362;2023-06-22T15:12:00;18.90;99.90
14517;DHT22;7344;50.864;4.362;2023-06-22T15:14:27;18.90;99.90
14517;DHT22;7344;50.864;4.362;2023-06-22T15:16:53;19.00;99.90
14517;DHT22;7344;50.864;4.362;2023-06-22T15:19:18;19.00;99.90
14517;DHT22;7344;50.864;4.362;2023-06-22T15:21:44;19.00;99.90
14517;DHT22;7344;50.864;4.362;2023-06-22T15:24:11;19.00;99.90
14517;DHT22;7344;50.864;4.362;2023-06-22T15:26:37;19.00;99.90
14517;DHT22;7344;50.864;4.362;2023-06-22T15:29:03;19.00;99.90
14517;DHT22;7344;50.864;4.362;2023-06-22T15:31:29;19.00;99.90
14517;DHT22;7344;50.864;4.362;2023-06-22T15:33:54;19.10;99.90
14517;DHT22;7344;50.864;4.362;2023-06-22T15:36:20;19.20;99.90
14517;DHT22;7344;50.864;4.362;2023-06-22T15:38:46;19.20;99.90
14517;DHT22;7344;50.864;4.362;2023-06-22T15:41:12;19.30;99.90
14517;DHT22;7344;50.864;4.362;2023-06-22T15:43:38;19.30;99.90
14517;DHT22;7344;50.864;4.362;2023-06-22T15:46:03;19.20;99.90
14517;DHT22;7344;50.864;4.362;2023-06-22T15:48:29;19.30;99.90
14517;DHT22;7344;50.864;4.362;2023-06-22T15:50:55;19.40;99.90